createdAt,value
2019-02-12T00:01:06.781Z,2.00
2019-02-12T00:03:34.734Z,2.00
2019-02-12T00:06:02.924Z,3.70
2019-02-12T00:08:31.036Z,3.40
2019-02-12T00:10:59.511Z,3.30
2019-02-12T00:13:27.514Z,2.60
2019-02-12T00:15:55.538Z,2.83
2019-02-12T00:18:23.674Z,2.70
2019-02-12T00:20:51.668Z,2.37
2019-02-12T00:23:19.689Z,1.97
2019-02-12T00:25:47.717Z,1.73
2019-02-12T00:28:15.764Z,1.90
2019-02-12T00:30:43.797Z,1.70
2019-02-12T00:33:11.787Z,1.80
2019-02-12T00:35:39.781Z,2.10
2019-02-12T00:38:07.787Z,1.83
2019-02-12T00:40:35.850Z,1.37
2019-02-12T00:43:03.810Z,1.67
2019-02-12T00:45:31.873Z,1.50
2019-02-12T00:47:59.902Z,1.17
2019-02-12T00:50:28.024Z,1.97
2019-02-12T00:52:56.048Z,3.20
2019-02-12T00:55:24.324Z,4.43
2019-02-12T00:57:52.377Z,5.00
2019-02-12T01:00:21.004Z,4.17
2019-02-12T01:02:49.414Z,4.10
2019-02-12T01:05:17.573Z,4.33
2019-02-12T01:07:45.987Z,2.37
2019-02-12T01:10:14.412Z,2.00
2019-02-12T01:12:42.834Z,1.40
2019-02-12T01:15:12.342Z,1.20
2019-02-12T01:17:40.504Z,1.10
2019-02-12T01:20:10.046Z,1.07
2019-02-12T01:22:38.306Z,1.10
2019-02-12T01:25:06.973Z,1.00
2019-02-12T01:27:35.194Z,1.00
2019-02-12T01:30:03.706Z,1.20
2019-02-12T01:32:31.779Z,1.10
2019-02-12T01:34:59.752Z,1.10
2019-02-12T01:37:28.055Z,1.17
2019-02-12T01:39:56.022Z,1.10
2019-02-12T01:42:24.059Z,1.07
2019-02-12T01:44:52.074Z,1.07
2019-02-12T01:47:20.127Z,0.90
2019-02-12T01:49:48.147Z,1.20
2019-02-12T01:52:16.481Z,1.20
2019-02-12T01:54:44.856Z,1.13
2019-02-12T01:57:12.990Z,1.13
2019-02-12T01:59:41.048Z,1.13
2019-02-12T02:02:09.698Z,1.30
2019-02-12T02:04:37.732Z,1.10
2019-02-12T02:07:06.194Z,1.03
2019-02-12T02:09:34.235Z,1.03
2019-02-12T02:12:02.466Z,1.00
2019-02-12T02:14:31.089Z,0.90
2019-02-12T02:16:59.017Z,0.90
2019-02-12T02:19:27.484Z,0.90
2019-02-12T02:21:56.515Z,0.90
2019-02-12T02:24:24.502Z,0.90
2019-02-12T02:26:52.480Z,0.90
2019-02-12T02:29:20.485Z,0.93
2019-02-12T02:31:48.479Z,1.10
2019-02-12T02:34:16.546Z,0.93
2019-02-12T02:36:44.449Z,1.10
2019-02-12T02:39:12.450Z,1.00
2019-02-12T02:41:40.418Z,1.03
2019-02-12T02:44:08.352Z,1.00
2019-02-12T02:46:36.351Z,1.17
2019-02-12T02:49:04.676Z,0.80
2019-02-12T02:51:33.075Z,0.87
2019-02-12T02:54:01.340Z,0.90
2019-02-12T02:56:29.321Z,0.93
2019-02-12T02:58:57.493Z,0.90
2019-02-12T03:01:25.739Z,0.90
2019-02-12T03:03:53.658Z,1.00
2019-02-12T03:06:22.219Z,1.00
2019-02-12T03:08:50.502Z,1.00
2019-02-12T03:11:18.480Z,1.00
2019-02-12T03:13:46.541Z,1.00
2019-02-12T03:16:14.722Z,1.00
2019-02-12T03:18:42.827Z,1.00
2019-02-12T03:21:10.902Z,1.03
2019-02-12T03:23:39.244Z,1.20
2019-02-12T03:26:07.428Z,1.13
2019-02-12T03:28:35.435Z,1.13
2019-02-12T03:31:03.889Z,1.10
2019-02-12T03:33:32.380Z,1.20
2019-02-12T03:36:00.454Z,1.57
2019-02-12T03:38:28.639Z,1.30
2019-02-12T03:40:57.196Z,1.10
2019-02-12T03:43:25.716Z,1.20
2019-02-12T03:45:54.265Z,1.30
2019-02-12T03:48:22.792Z,1.30
2019-02-12T03:50:50.751Z,1.40
2019-02-12T03:53:19.307Z,1.43
2019-02-12T03:55:47.439Z,1.30
2019-02-12T03:58:16.169Z,1.40
2019-02-12T04:00:44.247Z,1.20
2019-02-12T04:03:12.437Z,1.20
2019-02-12T04:05:40.615Z,1.27
2019-02-12T04:08:08.707Z,1.40
2019-02-12T04:10:36.818Z,1.43
2019-02-12T04:13:05.082Z,1.40
2019-02-12T04:15:33.202Z,1.53
2019-02-12T04:18:01.486Z,1.80
2019-02-12T04:20:29.559Z,2.00
2019-02-12T04:22:57.475Z,1.93
2019-02-12T04:25:25.595Z,1.83
2019-02-12T04:27:55.411Z,1.93
2019-02-12T04:30:23.667Z,1.70
2019-02-12T04:32:51.746Z,1.60
2019-02-12T04:35:19.863Z,1.50
2019-02-12T04:37:47.819Z,1.30
2019-02-12T04:40:16.019Z,1.60
2019-02-12T04:42:44.044Z,1.20
2019-02-12T04:45:12.136Z,1.30
2019-02-12T04:47:40.290Z,1.30
2019-02-12T04:50:09.884Z,1.10
2019-02-12T04:52:37.934Z,1.20
2019-02-12T04:55:07.193Z,1.20
2019-02-12T04:57:35.145Z,1.30
2019-02-12T05:00:03.415Z,1.53
2019-02-12T05:02:31.387Z,1.50
2019-02-12T05:04:59.898Z,1.40
2019-02-12T05:07:27.901Z,1.27
2019-02-12T05:09:55.848Z,1.40
2019-02-12T05:12:24.819Z,1.50
2019-02-12T05:14:52.979Z,1.57
2019-02-12T05:17:21.250Z,1.60
2019-02-12T05:19:49.243Z,1.60
2019-02-12T05:22:17.315Z,1.60
2019-02-12T05:24:45.439Z,1.70
2019-02-12T05:27:13.468Z,1.47
2019-02-12T05:29:41.491Z,1.67
2019-02-12T05:32:09.601Z,1.83
2019-02-12T05:34:37.975Z,1.60
2019-02-12T05:37:06.011Z,1.87
2019-02-12T05:39:33.963Z,1.40
2019-02-12T05:42:01.973Z,1.60
2019-02-12T05:44:29.979Z,1.50
2019-02-12T05:46:57.958Z,1.70
2019-02-12T05:49:25.952Z,1.60
2019-02-12T05:51:55.263Z,1.70
2019-02-12T05:54:23.295Z,1.60
2019-02-12T05:56:51.365Z,1.80
2019-02-12T05:59:19.387Z,1.70
2019-02-12T06:01:47.402Z,1.80
2019-02-12T06:04:15.413Z,1.90
2019-02-12T06:06:43.499Z,1.80
2019-02-12T06:09:11.488Z,2.00
2019-02-12T06:11:39.556Z,1.57
2019-02-12T06:14:07.647Z,1.70
2019-02-12T06:16:35.652Z,1.53
2019-02-12T06:19:03.618Z,1.80
2019-02-12T06:21:31.698Z,1.70
2019-02-12T06:23:59.852Z,1.90
2019-02-12T06:26:27.962Z,1.77
2019-02-12T06:28:56.018Z,1.97
2019-02-12T06:31:24.087Z,2.47
2019-02-12T06:33:52.150Z,2.30
2019-02-12T06:36:20.203Z,2.30
2019-02-12T06:38:48.601Z,2.40
2019-02-12T06:41:16.595Z,2.33
2019-02-12T06:43:44.729Z,2.90
2019-02-12T06:46:12.857Z,3.30
2019-02-12T06:48:40.910Z,3.77
2019-02-12T06:51:08.908Z,3.70
2019-02-12T06:53:37.017Z,4.40
2019-02-12T06:56:05.100Z,5.60
2019-02-12T06:58:33.175Z,6.03
2019-02-12T07:01:01.227Z,5.87
2019-02-12T07:03:42.651Z,5.80
2019-02-12T07:06:15.317Z,5.73
2019-02-12T07:09:15.543Z,5.97
2019-02-12T07:12:20.037Z,4.93
2019-02-12T07:15:21.799Z,3.73
2019-02-12T07:18:38.591Z,4.67
2019-02-12T07:21:42.791Z,4.73
2019-02-12T07:25:10.040Z,4.37
2019-02-12T07:28:15.975Z,4.67
2019-02-12T07:31:46.819Z,26.03
2019-02-12T07:34:35.346Z,13.07
2019-02-12T07:37:25.406Z,5.30
2019-02-12T07:40:29.734Z,6.97
2019-02-12T07:43:42.018Z,7.43
2019-02-12T07:47:06.752Z,5.50
2019-02-12T07:49:42.139Z,6.33
2019-02-12T07:52:18.895Z,6.33
2019-02-12T07:55:03.037Z,5.20
2019-02-12T07:58:09.619Z,8.13
2019-02-12T08:01:08.689Z,19.07
2019-02-12T08:04:11.907Z,16.03
2019-02-12T08:07:16.739Z,14.43
2019-02-12T08:10:15.995Z,11.87
2019-02-12T08:13:06.857Z,30.60
2019-02-12T08:15:44.576Z,55.73
2019-02-12T08:18:44.575Z,19.10
2019-02-12T08:21:45.194Z,16.33
2019-02-12T08:24:42.937Z,12.40
2019-02-12T08:27:34.210Z,9.10
2019-02-12T08:30:29.725Z,8.30
2019-02-12T08:33:42.182Z,8.43
2019-02-12T08:36:42.323Z,9.00
2019-02-12T08:39:46.149Z,8.37
2019-02-12T08:43:03.527Z,9.13
2019-02-12T08:46:16.311Z,9.17
2019-02-12T08:49:14.390Z,16.80
2019-02-12T08:52:19.331Z,14.83
2019-02-12T08:55:01.862Z,8.03
2019-02-12T08:57:47.486Z,9.77
2019-02-12T09:00:47.438Z,14.10
2019-02-12T09:04:00.450Z,13.33
2019-02-12T09:07:14.489Z,10.00
2019-02-12T09:10:24.232Z,8.80
2019-02-12T09:13:43.176Z,9.97
2019-02-12T09:16:38.567Z,8.60
2019-02-12T09:19:46.695Z,9.20
2019-02-12T09:23:03.904Z,7.00
2019-02-12T09:25:45.420Z,4.40
2019-02-12T09:28:50.895Z,4.33
2019-02-12T09:32:27.759Z,7.57
2019-02-12T09:35:25.101Z,20.50
2019-02-12T09:38:25.900Z,20.03
2019-02-12T09:41:22.032Z,22.90
2019-02-12T09:44:37.218Z,19.77
2019-02-12T09:47:43.684Z,10.10
2019-02-12T09:50:28.537Z,5.30
2019-02-12T09:53:53.626Z,5.43
2019-02-12T09:56:51.393Z,4.80
2019-02-12T10:00:00.990Z,3.43
2019-02-12T10:03:23.240Z,2.40
2019-02-12T10:06:21.707Z,2.27
2019-02-12T10:09:17.999Z,2.60
2019-02-12T10:12:33.462Z,2.10
2019-02-12T10:15:38.399Z,2.20
2019-02-12T10:18:40.003Z,2.47
2019-02-12T10:21:52.952Z,2.43
2019-02-12T10:24:38.493Z,2.10
2019-02-12T10:28:00.215Z,1.97
2019-02-12T10:30:51.247Z,2.10
2019-02-12T10:33:19.322Z,2.50
2019-02-12T10:35:47.398Z,2.50
2019-02-12T10:38:15.633Z,1.90
2019-02-12T10:40:43.645Z,2.73
2019-02-12T10:43:11.733Z,2.40
2019-02-12T10:45:39.717Z,2.60
2019-02-12T10:48:07.810Z,2.63
2019-02-12T10:50:35.977Z,3.17
2019-02-12T10:53:03.999Z,2.97
2019-02-12T10:55:32.400Z,3.13
2019-02-12T10:58:00.474Z,3.30
2019-02-12T11:00:28.950Z,3.00
2019-02-12T11:02:56.950Z,3.43
2019-02-12T11:05:25.063Z,3.60
2019-02-12T11:07:53.401Z,3.17
2019-02-12T11:10:21.435Z,3.17
2019-02-12T11:12:49.494Z,3.50
2019-02-12T11:15:23.502Z,3.37
2019-02-12T11:17:51.595Z,3.03
2019-02-12T11:20:19.595Z,2.97
2019-02-12T11:22:48.197Z,2.70
2019-02-12T11:25:16.468Z,2.70
2019-02-12T11:27:44.486Z,3.03
2019-02-12T11:30:12.802Z,2.90
2019-02-12T11:32:40.806Z,3.50
2019-02-12T11:35:09.147Z,3.50
2019-02-12T11:37:37.195Z,3.30
2019-02-12T11:40:06.232Z,3.30
2019-02-12T11:42:34.268Z,2.90
2019-02-12T11:45:02.405Z,3.37
2019-02-12T11:47:30.406Z,4.90
2019-02-12T11:49:58.526Z,4.50
2019-02-12T11:52:26.684Z,4.17
2019-02-12T11:54:54.623Z,3.57
2019-02-12T11:57:22.727Z,3.83
2019-02-12T11:59:52.349Z,3.60
2019-02-12T12:02:22.555Z,3.43
2019-02-12T12:04:50.562Z,4.03
2019-02-12T12:07:19.530Z,4.10
2019-02-12T12:09:47.575Z,4.17
2019-02-12T12:12:15.678Z,4.00
2019-02-12T12:15:21.160Z,4.33
2019-02-12T12:17:48.207Z,3.97
2019-02-12T12:20:16.260Z,3.90
2019-02-12T12:22:44.215Z,3.90
2019-02-12T12:25:12.534Z,4.00
2019-02-12T12:27:40.607Z,3.80
2019-02-12T12:30:09.325Z,3.50
2019-02-12T12:32:37.439Z,3.57
2019-02-12T12:35:06.065Z,3.80
2019-02-12T12:37:34.107Z,3.60
2019-02-12T12:40:02.123Z,3.47
2019-02-12T12:42:30.103Z,3.20
2019-02-12T12:44:58.033Z,3.30
2019-02-12T12:47:25.987Z,3.17
2019-02-12T12:49:54.683Z,3.30
2019-02-12T12:52:22.750Z,3.50
2019-02-12T12:54:50.696Z,3.10
2019-02-12T12:57:18.746Z,3.00
2019-02-12T12:59:46.738Z,2.87
2019-02-12T13:02:14.911Z,2.90
2019-02-12T13:04:42.867Z,6.00
2019-02-12T13:07:10.888Z,4.67
2019-02-12T13:09:38.935Z,3.80
2019-02-12T13:12:07.038Z,4.83
2019-02-12T13:14:58.147Z,3.40
2019-02-12T13:17:26.620Z,2.77
2019-02-12T13:19:54.594Z,2.43
2019-02-12T13:22:22.567Z,2.87
2019-02-12T13:24:50.683Z,2.87
2019-02-12T13:27:18.667Z,2.90
2019-02-12T13:29:47.137Z,2.80
2019-02-12T13:32:15.144Z,2.80
2019-02-12T13:34:43.220Z,2.77
2019-02-12T13:39:38.483Z,2.40
2019-02-12T13:42:06.452Z,2.63
2019-02-12T13:44:34.378Z,2.67
2019-02-12T13:47:02.424Z,2.30
2019-02-12T13:49:30.414Z,2.67
2019-02-12T13:51:59.410Z,2.60
2019-02-12T13:54:27.580Z,2.53
2019-02-12T13:56:56.827Z,2.70
2019-02-12T13:59:25.003Z,4.90
2019-02-12T14:01:52.951Z,2.97
2019-02-12T14:04:20.987Z,2.60
2019-02-12T14:06:49.159Z,2.70
2019-02-12T14:09:17.224Z,2.80
2019-02-12T14:11:45.200Z,2.40
2019-02-12T14:14:21.722Z,2.80
2019-02-12T14:16:50.271Z,2.70
2019-02-12T14:19:18.303Z,2.67
2019-02-12T14:21:46.383Z,2.37
2019-02-12T14:24:14.352Z,2.60
2019-02-12T14:26:42.421Z,2.67
2019-02-12T14:29:10.582Z,2.77
2019-02-12T14:31:38.978Z,2.87
2019-02-12T14:34:07.053Z,2.30
2019-02-12T14:36:35.102Z,2.60
2019-02-12T14:39:04.778Z,2.70
2019-02-12T14:41:33.192Z,2.67
2019-02-12T14:44:01.267Z,3.20
2019-02-12T14:46:29.419Z,6.80
2019-02-12T14:48:57.483Z,8.73
2019-02-12T14:51:25.505Z,6.47
2019-02-12T14:53:53.655Z,3.63
2019-02-12T14:56:22.011Z,3.00
2019-02-12T14:58:50.038Z,2.80
2019-02-12T15:01:18.078Z,2.03
2019-02-12T15:03:46.059Z,1.80
2019-02-12T15:06:14.047Z,1.80
2019-02-12T15:11:09.317Z,1.53
2019-02-12T15:13:37.362Z,1.70
2019-02-12T15:16:11.662Z,1.47
2019-02-12T15:18:39.663Z,1.67
2019-02-12T15:21:07.724Z,1.73
2019-02-12T15:23:35.754Z,1.80
2019-02-12T15:26:03.758Z,1.70
2019-02-12T15:28:31.895Z,1.60
2019-02-12T15:30:59.977Z,1.60
2019-02-12T15:33:28.143Z,1.30
2019-02-12T15:35:56.149Z,1.47
2019-02-12T15:38:24.098Z,1.53
2019-02-12T15:40:52.118Z,41.07
2019-02-12T15:43:22.070Z,26.67
2019-02-12T15:45:50.177Z,11.93
2019-02-12T15:48:18.296Z,6.63
2019-02-12T15:50:46.358Z,2.30
2019-02-12T15:53:14.407Z,2.30
2019-02-12T15:55:50.828Z,6.80
2019-02-12T15:58:12.306Z,8.03
2019-02-12T16:00:41.521Z,18.00
2019-02-12T16:03:10.173Z,17.20
2019-02-12T16:05:38.179Z,16.50
2019-02-12T16:08:07.331Z,11.20
2019-02-12T16:10:37.518Z,11.37
2019-02-12T16:13:05.917Z,12.93
2019-02-12T16:16:13.701Z,17.83
2019-02-12T16:18:40.299Z,17.13
2019-02-12T16:21:08.346Z,15.37
2019-02-12T16:23:36.408Z,16.00
2019-02-12T16:26:04.425Z,23.83
2019-02-12T16:28:32.659Z,42.30
2019-02-12T16:31:00.958Z,31.93
2019-02-12T16:33:29.421Z,18.87
2019-02-12T16:35:57.892Z,17.70
2019-02-12T16:38:25.939Z,14.70
2019-02-12T16:40:53.959Z,14.50
2019-02-12T16:43:22.890Z,15.67
2019-02-12T16:45:59.158Z,16.70
2019-02-12T16:48:27.184Z,16.37
2019-02-12T16:50:55.178Z,15.23
2019-02-12T16:53:23.271Z,13.67
2019-02-12T16:55:51.220Z,11.30
2019-02-12T16:58:19.226Z,9.87
2019-02-12T17:00:47.539Z,11.60
2019-02-12T17:03:16.038Z,30.50
2019-02-12T17:05:44.089Z,47.70
2019-02-12T17:08:12.199Z,39.13
2019-02-12T17:10:40.236Z,25.63
2019-02-12T17:13:08.505Z,16.23
2019-02-12T17:16:28.160Z,10.87
2019-02-12T17:18:53.950Z,13.87
2019-02-12T17:21:22.011Z,17.27
2019-02-12T17:23:49.999Z,15.10
2019-02-12T17:26:17.959Z,13.50
2019-02-12T17:28:46.395Z,10.33
2019-02-12T17:31:14.383Z,10.70
2019-02-12T17:33:42.484Z,11.60
2019-02-12T17:36:10.571Z,19.87
2019-02-12T17:38:38.890Z,16.70
2019-02-12T17:41:07.010Z,10.43
2019-02-12T17:43:35.231Z,7.37
2019-02-12T17:46:03.482Z,8.07
2019-02-12T17:48:32.310Z,9.07
2019-02-12T17:51:01.210Z,10.07
2019-02-12T17:53:30.291Z,9.67
2019-02-12T17:55:59.099Z,10.70
2019-02-12T17:58:28.011Z,15.67
2019-02-12T18:00:56.827Z,11.73
2019-02-12T18:03:25.691Z,10.37
2019-02-12T18:05:54.586Z,11.50
2019-02-12T18:08:23.542Z,12.37
2019-02-12T18:10:52.383Z,10.67
2019-02-12T18:13:21.274Z,12.57
2019-02-12T18:16:10.632Z,12.20
2019-02-12T18:18:39.460Z,11.67
2019-02-12T18:21:08.436Z,12.80
2019-02-12T18:23:37.344Z,15.03
2019-02-12T18:26:06.295Z,13.47
2019-02-12T18:28:35.924Z,11.50
2019-02-12T18:31:04.813Z,10.03
2019-02-12T18:33:33.687Z,9.47
2019-02-12T18:36:02.638Z,11.87
2019-02-12T18:38:31.490Z,10.50
2019-02-12T18:41:00.439Z,12.20
2019-02-12T18:43:29.340Z,14.53
2019-02-12T18:45:58.599Z,17.33
2019-02-12T18:48:27.520Z,21.97
2019-02-12T18:50:56.348Z,21.30
2019-02-12T18:53:25.159Z,16.43
2019-02-12T18:55:54.037Z,15.00
2019-02-12T18:58:24.635Z,11.93
2019-02-12T19:00:53.574Z,14.60
2019-02-12T19:03:27.132Z,14.10
2019-02-12T19:05:56.775Z,14.63
2019-02-12T19:08:25.831Z,19.50
2019-02-12T19:10:57.043Z,19.13
2019-02-12T19:13:27.565Z,17.17
2019-02-12T19:16:44.050Z,20.67
2019-02-12T19:19:15.630Z,21.77
2019-02-12T19:21:44.462Z,15.50
2019-02-12T19:24:13.326Z,15.93
2019-02-12T19:26:49.616Z,27.23
2019-02-12T19:29:12.952Z,17.13
2019-02-12T19:31:44.356Z,15.40
2019-02-12T19:34:13.285Z,13.87
2019-02-12T19:37:11.337Z,14.27
2019-02-12T19:39:40.937Z,14.37
2019-02-12T19:42:10.394Z,12.57
2019-02-12T19:44:42.185Z,20.27
2019-02-12T19:47:11.438Z,17.37
2019-02-12T19:49:40.341Z,14.93
2019-02-12T19:52:09.845Z,11.97
2019-02-12T19:54:40.537Z,10.60
2019-02-12T19:57:10.624Z,10.97
2019-02-12T19:59:39.582Z,11.40
2019-02-12T20:02:08.960Z,11.97
2019-02-12T20:04:38.516Z,12.00
2019-02-12T20:07:07.722Z,11.33
2019-02-12T20:09:36.630Z,13.47
2019-02-12T20:12:05.540Z,12.20
2019-02-12T20:14:59.336Z,10.70
2019-02-12T20:17:28.075Z,10.07
2019-02-12T20:19:57.215Z,8.17
2019-02-12T20:22:26.223Z,6.77
2019-02-12T20:24:55.148Z,9.00
2019-02-12T20:27:24.039Z,8.20
2019-02-12T20:30:07.132Z,9.90
2019-02-12T20:32:35.715Z,21.63
2019-02-12T20:35:04.955Z,27.47
2019-02-12T20:37:33.896Z,27.57
2019-02-12T20:40:03.629Z,16.50
2019-02-12T20:42:32.457Z,11.97
2019-02-12T20:45:01.384Z,9.73
2019-02-12T20:47:30.359Z,8.93
2019-02-12T20:49:59.238Z,7.90
2019-02-12T20:52:28.155Z,9.03
2019-02-12T20:54:57.066Z,8.53
2019-02-12T20:57:25.934Z,8.17
2019-02-12T20:59:54.648Z,7.93
2019-02-12T21:02:23.508Z,6.67
2019-02-12T21:04:52.290Z,9.73
2019-02-12T21:07:21.230Z,10.60
2019-02-12T21:09:52.012Z,11.87
2019-02-12T21:12:20.848Z,17.73
2019-02-12T21:15:29.740Z,13.77
2019-02-12T21:17:57.863Z,9.80
2019-02-12T21:20:26.695Z,9.47
2019-02-12T21:22:55.555Z,8.93
2019-02-12T21:25:39.443Z,8.63
2019-02-12T21:28:08.117Z,7.67
2019-02-12T21:30:36.735Z,7.70
2019-02-12T21:33:05.063Z,7.20
2019-02-12T21:35:33.623Z,6.03
2019-02-12T21:38:02.731Z,7.30
2019-02-12T21:40:31.023Z,7.73
2019-02-12T21:42:59.139Z,7.93
2019-02-12T21:45:27.215Z,7.83
2019-02-12T21:47:55.273Z,6.43
2019-02-12T21:50:23.942Z,6.00
2019-02-12T21:52:51.945Z,5.27
2019-02-12T21:55:20.295Z,5.70
2019-02-12T21:57:48.468Z,5.23
2019-02-12T22:00:16.644Z,5.07
2019-02-12T22:02:44.711Z,6.00
2019-02-12T22:05:13.226Z,7.80
2019-02-12T22:07:41.256Z,7.80
2019-02-12T22:10:11.424Z,6.63
2019-02-12T22:12:39.442Z,5.87
2019-02-12T22:15:51.201Z,6.37
2019-02-12T22:18:17.533Z,7.57
2019-02-12T22:20:45.601Z,7.60
2019-02-12T22:23:13.606Z,8.40
2019-02-12T22:25:41.689Z,7.47
2019-02-12T22:28:09.699Z,7.47
2019-02-12T22:30:37.686Z,9.77
2019-02-12T22:33:05.759Z,7.87
2019-02-12T22:35:33.678Z,6.13
2019-02-12T22:38:01.618Z,5.97
2019-02-12T22:40:29.599Z,5.47
2019-02-12T22:42:57.579Z,6.30
2019-02-12T22:45:25.492Z,5.47
2019-02-12T22:47:53.532Z,5.23
2019-02-12T22:50:22.664Z,5.03
2019-02-12T22:52:50.644Z,4.97
2019-02-12T22:55:18.839Z,4.10
2019-02-12T22:57:49.177Z,5.10
2019-02-12T23:00:55.604Z,5.60
2019-02-12T23:03:24.719Z,4.50
2019-02-12T23:05:52.794Z,5.40
2019-02-12T23:08:21.279Z,5.00
2019-02-12T23:10:49.352Z,4.97
2019-02-12T23:13:17.514Z,5.27
2019-02-12T23:15:45.666Z,4.33
2019-02-12T23:18:13.600Z,4.20
2019-02-12T23:20:41.604Z,4.53
2019-02-12T23:23:09.713Z,4.90
2019-02-12T23:25:37.713Z,4.17
2019-02-12T23:28:05.686Z,3.80
2019-02-12T23:30:33.715Z,3.40
2019-02-12T23:33:01.770Z,3.33
2019-02-12T23:35:29.707Z,3.83
2019-02-12T23:37:57.659Z,3.73
2019-02-12T23:40:25.683Z,3.20
2019-02-12T23:42:53.757Z,3.37
2019-02-12T23:45:21.934Z,3.17
2019-02-12T23:47:49.950Z,3.60
2019-02-12T23:50:18.083Z,3.80
2019-02-12T23:52:46.139Z,3.20
2019-02-12T23:55:14.197Z,2.83
2019-02-12T23:57:42.172Z,2.23
